Golden Grove — VJ6977 — position and weather

sailwx.info

Track history (hours):
 
Tides and Currents Weather Stations Pressure Air Temp Water Temp Dewpoint Dewpoint Depression Visibility Wind Speed Wind Dir Waves Ship Positions

Golden Grove

Last reported at 2018-May-24 21:02 UTC. Time now 2018-May-25 03:27 UTC.
Position S 33°50' E 151°14'.

Type: Passenger vessel. MMSI: 503345500.

Date/timePositionNaut miles runAvg speedWind from/ knotsBaromVisibWave heightAir tempDewpointWater temp
2018-May-24 21:02S 33°50' E 151°14'2 6.6
2018-May-24 20:47S 33°52' E 151°13'2 4.9
2018-May-24 20:29S 33°51' E 151°14'2 0.3
2018-May-24 15:08S 33°52' E 151°13'0 0.0
2018-May-24 14:59S 33°52' E 151°13'0 0.0
2018-May-24 14:29S 33°52' E 151°13'0 0.0
2018-May-24 14:00S 33°52' E 151°13'2 0.3
2018-May-24 08:53S 33°52' E 151°15'2 4.1
2018-May-24 08:30S 33°52' E 151°13'1 1.2
2018-May-24 08:00S 33°51' E 151°13'1 0.2
2018-May-24 04:43S 33°52' E 151°13'2 3.2
2018-May-24 04:12S 33°52' E 151°15'2 0.2
2018-May-23 20:42S 33°51' E 151°13'1 2.8
2018-May-23 20:17S 33°51' E 151°14'1 4.8
2018-May-23 20:00S 33°52' E 151°13'0 0.0
2018-May-23 19:30S 33°52' E 151°13'0 0.0
2018-May-23 19:00S 33°52' E 151°13'0 0.0
2018-May-23 18:30S 33°52' E 151°13'0 0.0
2018-May-23 18:00S 33°52' E 151°13'0 0.0
2018-May-23 17:30S 33°52' E 151°13'0 0.0
2018-May-23 16:59S 33°52' E 151°13'0 0.0
2018-May-23 16:30S 33°52' E 151°13'0 0.0
2018-May-23 16:00S 33°52' E 151°13'0 0.0
2018-May-23 15:30S 33°52' E 151°13'0 0.0
2018-May-23 14:56S 33°52' E 151°13'0 0.0
2018-May-23 14:30S 33°52' E 151°13'1 2.1
2018-May-23 13:55S 33°51' E 151°11'2 4.7
2018-May-23 13:30S 33°51' E 151°14'1 0.2
2018-May-23 07:34S 33°52' E 151°13'1 9.1
2018-May-23 07:30S 33°51' E 151°13'1 0.1
2018-May-22 21:19S 33°52' E 151°15'2 4.9
2018-May-22 20:58S 33°52' E 151°13'0 0.7
2018-May-22 20:30S 33°51' E 151°13'0 0.5
2018-May-22 19:59S 33°52' E 151°13'0 0.0
2018-May-22 17:17S 33°52' E 151°13'0 0.0
2018-May-22 16:47S 33°52' E 151°13'0 0.0
2018-May-22 16:21S 33°52' E 151°13'0 0.0
2018-May-22 15:02S 33°52' E 151°13'0 0.0
2018-May-22 15:01S 33°52' E 151°13'0 0.0
2018-May-22 14:30S 33°52' E 151°13'1 2.2
2018-May-22 14:01S 33°51' E 151°12'2 2.1
2018-May-22 13:09S 33°51' E 151°14'1 3.3
2018-May-22 12:48S 33°52' E 151°13'2 1.0
2018-May-22 11:16S 33°50' E 151°14'2 3.8
2018-May-22 10:51S 33°52' E 151°13'0 0.0
2018-May-22 10:29S 33°52' E 151°13'0 0.0
2018-May-22 10:01S 33°52' E 151°13'1 1.3
2018-May-22 09:29S 33°51' E 151°13'1 1.3
2018-May-22 09:00S 33°51' E 151°14'1 2.2
2018-May-22 08:28S 33°52' E 151°13'1 1.7
2018-May-22 07:55S 33°51' E 151°14'0 0.6
2018-May-22 07:29S 33°51' E 151°13'2 0.2
2018-May-21 20:36S 33°51' E 151°11'0 0.0
2018-May-21 20:30S 33°51' E 151°11'1 2.5
2018-May-21 20:00S 33°51' E 151°13'0 0.2
2018-May-21 17:37S 33°52' E 151°13'0 0.0
2018-May-21 17:18S 33°52' E 151°13'0 0.0
2018-May-21 17:00S 33°52' E 151°13'0 0.0
2018-May-21 16:30S 33°52' E 151°13'0 0.0
2018-May-21 16:00S 33°52' E 151°13'0 0.0
2018-May-21 15:30S 33°52' E 151°13'0 0.0
2018-May-21 15:00S 33°52' E 151°13'0 0.0
2018-May-21 14:30S 33°52' E 151°13'0 0.0
2018-May-21 13:48S 33°52' E 151°13'0 0.0
2018-May-21 13:27S 33°52' E 151°13'0 0.0
2018-May-21 13:00S 33°52' E 151°13'0 0.0
2018-May-21 12:30S 33°52' E 151°13'0 0.0
2018-May-21 09:51S 33°52' E 151°13'0 1.4
2018-May-21 09:30S 33°51' E 151°13'1 1.3
2018-May-21 09:00S 33°51' E 151°14'1 2.3
2018-May-21 08:30S 33°51' E 151°13'2 3.0
2018-May-21 07:59S 33°51' E 151°14'1 2.3
2018-May-21 07:30S 33°51' E 151°13'0 0.0
2018-May-20 20:34S 33°51' E 151°13'1 8.3
2018-May-20 20:30S 33°51' E 151°13'0 0.6
2018-May-20 19:58S 33°52' E 151°13'0 0.0
2018-May-20 19:29S 33°52' E 151°13'0 0.0
2018-May-20 19:00S 33°52' E 151°13'0 0.0
2018-May-20 18:30S 33°52' E 151°13'0 0.0
2018-May-20 17:51S 33°52' E 151°13'0 0.0
2018-May-20 17:30S 33°52' E 151°13'0 0.0
2018-May-20 15:40S 33°52' E 151°13'0 0.0
2018-May-20 15:25S 33°52' E 151°13'0 0.0
2018-May-20 14:34S 33°52' E 151°13'0 0.0
2018-May-20 14:30S 33°52' E 151°13'0 0.0
2018-May-20 13:50S 33°52' E 151°13'0 0.0
2018-May-20 13:30S 33°52' E 151°13'0 0.0
2018-May-20 12:55S 33°52' E 151°13'1 0.2
2018-May-20 10:34S 33°51' E 151°13'111.7
2018-May-20 10:30S 33°51' E 151°14'1 1.9
2018-May-20 09:50S 33°52' E 151°13'0 0.1
2018-May-20 09:24S 33°52' E 151°13'0 0.0
2018-May-20 08:59S 33°52' E 151°13'1 1.9
2018-May-20 08:28S 33°51' E 151°14'0 0.3
2018-May-20 07:57S 33°51' E 151°14'1 1.7
2018-May-20 07:29S 33°51' E 151°13'0 0.0
2018-May-19 20:28S 33°52' E 151°13'0 0.0
2018-May-19 19:59S 33°52' E 151°13'0 0.0
2018-May-19 18:19S 33°52' E 151°13'0 0.0
2018-May-19 17:53S 33°52' E 151°13'0 0.0
2018-May-19 15:49S 33°52' E 151°13'0 0.0
2018-May-19 15:25S 33°52' E 151°13'0 0.0
2018-May-19 14:58S 33°52' E 151°13'0 0.0
2018-May-19 14:29S 33°52' E 151°13'0 0.0
2018-May-19 13:44S 33°52' E 151°13'0 0.0
2018-May-19 13:24S 33°52' E 151°13'0 0.0
2018-May-19 12:37S 33°52' E 151°13'0 0.0
2018-May-19 12:24S 33°52' E 151°13'0 0.0
2018-May-19 07:54S 33°52' E 151°13'0 0.0
2018-May-18 20:38S 33°52' E 151°13'0 0.0
2018-May-18 20:17S 33°52' E 151°13'0 0.0
2018-May-18 19:55S 33°52' E 151°13'0 0.0
2018-May-18 19:28S 33°52' E 151°13'0 0.0
2018-May-18 18:53S 33°52' E 151°13'0 0.0
2018-May-18 18:25S 33°52' E 151°13'0 0.0
2018-May-18 18:01S 33°52' E 151°13'0 0.0
2018-May-18 14:24S 33°52' E 151°13'1 2.5
2018-May-18 13:56S 33°51' E 151°11'2 4.8
2018-May-18 13:30S 33°51' E 151°14'1 1.8
2018-May-18 12:50S 33°52' E 151°13'0 0.0
2018-May-18 07:33S 33°51' E 151°13'111.3
2018-May-18 07:30S 33°51' E 151°13'1 0.1
2018-May-17 21:14S 33°52' E 151°15'2 2.5
2018-May-17 20:33S 33°51' E 151°13'110.0
2018-May-17 20:29S 33°52' E 151°13'0 0.1
2018-May-17 19:59S 33°51' E 151°13'0 0.3
2018-May-17 19:29S 33°52' E 151°13'0 0.0
2018-May-17 19:00S 33°52' E 151°13'0 0.0
2018-May-17 18:25S 33°52' E 151°13'0 0.0
2018-May-17 17:57S 33°52' E 151°13'0 0.0
2018-May-17 17:19S 33°52' E 151°13'0 0.0
2018-May-17 17:00S 33°52' E 151°13'0 0.0
2018-May-17 16:30S 33°52' E 151°13'0 0.0
2018-May-17 16:00S 33°52' E 151°13'0 0.0
2018-May-17 15:30S 33°52' E 151°13'0 0.0
2018-May-17 15:00S 33°52' E 151°13'0 0.0
2018-May-17 14:28S 33°52' E 151°13'0 0.4
2018-May-17 13:49S 33°51' E 151°13'1 2.7
2018-May-17 13:30S 33°51' E 151°14'1 1.3
2018-May-17 12:47S 33°52' E 151°13'0 0.2
2018-May-17 11:36S 33°51' E 151°13'1 8.9
2018-May-17 11:28S 33°51' E 151°14'1 0.6
2018-May-17 09:27S 33°52' E 151°13'1 2.6
2018-May-17 08:59S 33°51' E 151°14'1 2.5
2018-May-17 08:29S 33°52' E 151°13'1 2.2
2018-May-17 07:55S 33°51' E 151°14'1 1.8
2018-May-17 07:25S 33°52' E 151°14'2 0.3
2018-May-17 01:58S 33°50' E 151°16'2 5.2
2018-May-17 01:30S 33°48' E 151°17'2 1.8
2018-May-17 00:26S 33°50' E 151°16'2 5.0
2018-May-17 00:01S 33°48' E 151°17'4 1.3
2018-May-16 20:33S 33°51' E 151°13'1 7.9
2018-May-16 20:28S 33°52' E 151°13'0 0.0
2018-May-16 19:58S 33°52' E 151°13'0 0.0
2018-May-16 19:30S 33°52' E 151°13'0 0.0
2018-May-16 19:01S 33°52' E 151°13'0 0.0
2018-May-16 18:30S 33°52' E 151°13'0 0.0
2018-May-16 18:01S 33°52' E 151°13'0 0.0
2018-May-16 17:30S 33°52' E 151°13'0 0.0
2018-May-16 17:01S 33°52' E 151°13'0 0.0
2018-May-16 16:30S 33°52' E 151°13'0 0.0
2018-May-16 16:01S 33°52' E 151°13'0 0.0
2018-May-16 15:31S 33°52' E 151°13'0 0.0
2018-May-16 15:00S 33°52' E 151°13'0 0.0
2018-May-16 14:29S 33°52' E 151°13'0 0.0
2018-May-16 13:01S 33°52' E 151°13'0 0.1
2018-May-16 12:48S 33°52' E 151°13'0 0.2
2018-May-16 12:30S 33°52' E 151°13'0 0.0
2018-May-16 12:00S 33°52' E 151°13'0 0.0
2018-May-16 11:30S 33°52' E 151°13'0 0.0
2018-May-16 10:59S 33°52' E 151°13'0 0.0
2018-May-16 09:45S 33°52' E 151°13'1 3.8
2018-May-16 09:26S 33°52' E 151°14'2 1.7
2018-May-16 07:57S 33°51' E 151°11'2 2.3
2018-May-16 07:07S 33°51' E 151°13'2 0.5
2018-May-16 03:00S 33°52' E 151°16'0 0.4
2018-May-16 02:30S 33°52' E 151°16'0 0.2
2018-May-16 02:01S 33°51' E 151°16'0 0.4
2018-May-16 01:31S 33°52' E 151°16'2 0.5
2018-May-15 20:34S 33°51' E 151°13'1 4.3
2018-May-15 20:22S 33°52' E 151°13'0 0.5
2018-May-15 20:00S 33°51' E 151°13'0 0.4
2018-May-15 19:30S 33°52' E 151°13'0 0.0
2018-May-15 19:00S 33°52' E 151°13'0 0.0
2018-May-15 18:30S 33°52' E 151°13'0 0.0
2018-May-15 18:00S 33°52' E 151°13'0 0.0
2018-May-15 17:30S 33°52' E 151°13'0 0.0
2018-May-15 17:00S 33°52' E 151°13'0 0.0
2018-May-15 16:30S 33°52' E 151°13'0 0.0
2018-May-15 16:00S 33°52' E 151°13'0 0.0
2018-May-15 15:30S 33°52' E 151°13'0 0.0
2018-May-15 15:00S 33°52' E 151°13'0 0.0
2018-May-15 14:30S 33°52' E 151°13'1 2.1
2018-May-15 14:00S 33°51' E 151°12'2 3.3
2018-May-15 13:30S 33°51' E 151°13'1 1.5
2018-May-15 12:53S 33°52' E 151°13'1 3.3
2018-May-15 12:29S 33°51' E 151°11'1 1.9
2018-May-15 11:48S 33°51' E 151°13'1 1.1
2018-May-15 11:08S 33°51' E 151°14'1 5.9
2018-May-15 10:57S 33°52' E 151°13'0 0.4
2018-May-15 09:46S 33°51' E 151°13'0 0.5
2018-May-15 09:29S 33°51' E 151°13'1 1.9
2018-May-15 08:54S 33°50' E 151°14'2 3.9
2018-May-15 08:30S 33°52' E 151°13'0 0.5
2018-May-15 07:48S 33°51' E 151°13'1 1.6
2018-May-15 07:29S 33°51' E 151°13'  
Track history (hours):
 
Tides and Currents Weather Stations Pressure Air Temp Water Temp Dewpoint Dewpoint Depression Visibility Wind Speed Wind Dir Waves Ship Positions

Golden Grove

Last reported at 2018-May-24 21:02 UTC. Time now 2018-May-25 03:27 UTC.
Position S 33°50' E 151°14'.

Type: Passenger vessel. MMSI: 503345500.

Date/timePositionNaut miles runAvg speedWind from/ knotsBaromVisibWave heightAir tempDewpointWater temp
2018-May-24 21:02S 33°50' E 151°14'2 6.6
2018-May-24 20:47S 33°52' E 151°13'2 4.9
2018-May-24 20:29S 33°51' E 151°14'2 0.3
2018-May-24 15:08S 33°52' E 151°13'0 0.0
2018-May-24 14:59S 33°52' E 151°13'0 0.0
2018-May-24 14:29S 33°52' E 151°13'0 0.0
2018-May-24 14:00S 33°52' E 151°13'2 0.3
2018-May-24 08:53S 33°52' E 151°15'2 4.1
2018-May-24 08:30S 33°52' E 151°13'1 1.2
2018-May-24 08:00S 33°51' E 151°13'1 0.2
2018-May-24 04:43S 33°52' E 151°13'2 3.2
2018-May-24 04:12S 33°52' E 151°15'2 0.2
2018-May-23 20:42S 33°51' E 151°13'1 2.8
2018-May-23 20:17S 33°51' E 151°14'1 4.8
2018-May-23 20:00S 33°52' E 151°13'0 0.0
2018-May-23 19:30S 33°52' E 151°13'0 0.0
2018-May-23 19:00S 33°52' E 151°13'0 0.0
2018-May-23 18:30S 33°52' E 151°13'0 0.0
2018-May-23 18:00S 33°52' E 151°13'0 0.0
2018-May-23 17:30S 33°52' E 151°13'0 0.0
2018-May-23 16:59S 33°52' E 151°13'0 0.0
2018-May-23 16:30S 33°52' E 151°13'0 0.0
2018-May-23 16:00S 33°52' E 151°13'0 0.0
2018-May-23 15:30S 33°52' E 151°13'0 0.0
2018-May-23 14:56S 33°52' E 151°13'0 0.0
2018-May-23 14:30S 33°52' E 151°13'1 2.1
2018-May-23 13:55S 33°51' E 151°11'2 4.7
2018-May-23 13:30S 33°51' E 151°14'1 0.2
2018-May-23 07:34S 33°52' E 151°13'1 9.1
2018-May-23 07:30S 33°51' E 151°13'1 0.1
2018-May-22 21:19S 33°52' E 151°15'2 4.9
2018-May-22 20:58S 33°52' E 151°13'0 0.7
2018-May-22 20:30S 33°51' E 151°13'0 0.5
2018-May-22 19:59S 33°52' E 151°13'0 0.0
2018-May-22 17:17S 33°52' E 151°13'0 0.0
2018-May-22 16:47S 33°52' E 151°13'0 0.0
2018-May-22 16:21S 33°52' E 151°13'0 0.0
2018-May-22 15:02S 33°52' E 151°13'0 0.0
2018-May-22 15:01S 33°52' E 151°13'0 0.0
2018-May-22 14:30S 33°52' E 151°13'1 2.2
2018-May-22 14:01S 33°51' E 151°12'2 2.1
2018-May-22 13:09S 33°51' E 151°14'1 3.3
2018-May-22 12:48S 33°52' E 151°13'2 1.0
2018-May-22 11:16S 33°50' E 151°14'2 3.8
2018-May-22 10:51S 33°52' E 151°13'0 0.0
2018-May-22 10:29S 33°52' E 151°13'0 0.0
2018-May-22 10:01S 33°52' E 151°13'1 1.3
2018-May-22 09:29S 33°51' E 151°13'1 1.3
2018-May-22 09:00S 33°51' E 151°14'1 2.2
2018-May-22 08:28S 33°52' E 151°13'1 1.7
2018-May-22 07:55S 33°51' E 151°14'0 0.6
2018-May-22 07:29S 33°51' E 151°13'2 0.2
2018-May-21 20:36S 33°51' E 151°11'0 0.0
2018-May-21 20:30S 33°51' E 151°11'1 2.5
2018-May-21 20:00S 33°51' E 151°13'0 0.2
2018-May-21 17:37S 33°52' E 151°13'0 0.0
2018-May-21 17:18S 33°52' E 151°13'0 0.0
2018-May-21 17:00S 33°52' E 151°13'0 0.0
2018-May-21 16:30S 33°52' E 151°13'0 0.0
2018-May-21 16:00S 33°52' E 151°13'0 0.0
2018-May-21 15:30S 33°52' E 151°13'0 0.0
2018-May-21 15:00S 33°52' E 151°13'0 0.0
2018-May-21 14:30S 33°52' E 151°13'0 0.0
2018-May-21 13:48S 33°52' E 151°13'0 0.0
2018-May-21 13:27S 33°52' E 151°13'0 0.0
2018-May-21 13:00S 33°52' E 151°13'0 0.0
2018-May-21 12:30S 33°52' E 151°13'0 0.0
2018-May-21 09:51S 33°52' E 151°13'0 1.4
2018-May-21 09:30S 33°51' E 151°13'1 1.3
2018-May-21 09:00S 33°51' E 151°14'1 2.3
2018-May-21 08:30S 33°51' E 151°13'2 3.0
2018-May-21 07:59S 33°51' E 151°14'1 2.3
2018-May-21 07:30S 33°51' E 151°13'0 0.0
2018-May-20 20:34S 33°51' E 151°13'1 8.3
2018-May-20 20:30S 33°51' E 151°13'0 0.6
2018-May-20 19:58S 33°52' E 151°13'0 0.0
2018-May-20 19:29S 33°52' E 151°13'0 0.0
2018-May-20 19:00S 33°52' E 151°13'0 0.0
2018-May-20 18:30S 33°52' E 151°13'0 0.0
2018-May-20 17:51S 33°52' E 151°13'0 0.0
2018-May-20 17:30S 33°52' E 151°13'0 0.0
2018-May-20 15:40S 33°52' E 151°13'0 0.0
2018-May-20 15:25S 33°52' E 151°13'0 0.0
2018-May-20 14:34S 33°52' E 151°13'0 0.0
2018-May-20 14:30S 33°52' E 151°13'0 0.0
2018-May-20 13:50S 33°52' E 151°13'0 0.0
2018-May-20 13:30S 33°52' E 151°13'0 0.0
2018-May-20 12:55S 33°52' E 151°13'1 0.2
2018-May-20 10:34S 33°51' E 151°13'111.7
2018-May-20 10:30S 33°51' E 151°14'1 1.9
2018-May-20 09:50S 33°52' E 151°13'0 0.1
2018-May-20 09:24S 33°52' E 151°13'0 0.0
2018-May-20 08:59S 33°52' E 151°13'1 1.9
2018-May-20 08:28S 33°51' E 151°14'0 0.3
2018-May-20 07:57S 33°51' E 151°14'1 1.7
2018-May-20 07:29S 33°51' E 151°13'0 0.0
2018-May-19 20:28S 33°52' E 151°13'0 0.0
2018-May-19 19:59S 33°52' E 151°13'0 0.0
2018-May-19 18:19S 33°52' E 151°13'0 0.0
2018-May-19 17:53S 33°52' E 151°13'0 0.0
2018-May-19 15:49S 33°52' E 151°13'0 0.0
2018-May-19 15:25S 33°52' E 151°13'0 0.0
2018-May-19 14:58S 33°52' E 151°13'0 0.0
2018-May-19 14:29S 33°52' E 151°13'0 0.0
2018-May-19 13:44S 33°52' E 151°13'0 0.0
2018-May-19 13:24S 33°52' E 151°13'0 0.0
2018-May-19 12:37S 33°52' E 151°13'0 0.0
2018-May-19 12:24S 33°52' E 151°13'0 0.0
2018-May-19 07:54S 33°52' E 151°13'0 0.0
2018-May-18 20:38S 33°52' E 151°13'0 0.0
2018-May-18 20:17S 33°52' E 151°13'0 0.0
2018-May-18 19:55S 33°52' E 151°13'0 0.0
2018-May-18 19:28S 33°52' E 151°13'0 0.0
2018-May-18 18:53S 33°52' E 151°13'0 0.0
2018-May-18 18:25S 33°52' E 151°13'0 0.0
2018-May-18 18:01S 33°52' E 151°13'0 0.0
2018-May-18 14:24S 33°52' E 151°13'1 2.5
2018-May-18 13:56S 33°51' E 151°11'2 4.8
2018-May-18 13:30S 33°51' E 151°14'1 1.8
2018-May-18 12:50S 33°52' E 151°13'0 0.0
2018-May-18 07:33S 33°51' E 151°13'111.3
2018-May-18 07:30S 33°51' E 151°13'1 0.1
2018-May-17 21:14S 33°52' E 151°15'2 2.5
2018-May-17 20:33S 33°51' E 151°13'110.0
2018-May-17 20:29S 33°52' E 151°13'0 0.1
2018-May-17 19:59S 33°51' E 151°13'0 0.3
2018-May-17 19:29S 33°52' E 151°13'0 0.0
2018-May-17 19:00S 33°52' E 151°13'0 0.0
2018-May-17 18:25S 33°52' E 151°13'0 0.0
2018-May-17 17:57S 33°52' E 151°13'0 0.0
2018-May-17 17:19S 33°52' E 151°13'0 0.0
2018-May-17 17:00S 33°52' E 151°13'0 0.0
2018-May-17 16:30S 33°52' E 151°13'0 0.0
2018-May-17 16:00S 33°52' E 151°13'0 0.0
2018-May-17 15:30S 33°52' E 151°13'0 0.0
2018-May-17 15:00S 33°52' E 151°13'0 0.0
2018-May-17 14:28S 33°52' E 151°13'0 0.4
2018-May-17 13:49S 33°51' E 151°13'1 2.7
2018-May-17 13:30S 33°51' E 151°14'1 1.3
2018-May-17 12:47S 33°52' E 151°13'0 0.2
2018-May-17 11:36S 33°51' E 151°13'1 8.9
2018-May-17 11:28S 33°51' E 151°14'1 0.6
2018-May-17 09:27S 33°52' E 151°13'1 2.6
2018-May-17 08:59S 33°51' E 151°14'1 2.5
2018-May-17 08:29S 33°52' E 151°13'1 2.2
2018-May-17 07:55S 33°51' E 151°14'1 1.8
2018-May-17 07:25S 33°52' E 151°14'2 0.3
2018-May-17 01:58S 33°50' E 151°16'2 5.2
2018-May-17 01:30S 33°48' E 151°17'2 1.8
2018-May-17 00:26S 33°50' E 151°16'2 5.0
2018-May-17 00:01S 33°48' E 151°17'4 1.3
2018-May-16 20:33S 33°51' E 151°13'1 7.9
2018-May-16 20:28S 33°52' E 151°13'0 0.0
2018-May-16 19:58S 33°52' E 151°13'0 0.0
2018-May-16 19:30S 33°52' E 151°13'0 0.0
2018-May-16 19:01S 33°52' E 151°13'0 0.0
2018-May-16 18:30S 33°52' E 151°13'0 0.0
2018-May-16 18:01S 33°52' E 151°13'0 0.0
2018-May-16 17:30S 33°52' E 151°13'0 0.0
2018-May-16 17:01S 33°52' E 151°13'0 0.0
2018-May-16 16:30S 33°52' E 151°13'0 0.0
2018-May-16 16:01S 33°52' E 151°13'0 0.0
2018-May-16 15:31S 33°52' E 151°13'0 0.0
2018-May-16 15:00S 33°52' E 151°13'0 0.0
2018-May-16 14:29S 33°52' E 151°13'0 0.0
2018-May-16 13:01S 33°52' E 151°13'0 0.1
2018-May-16 12:48S 33°52' E 151°13'0 0.2
2018-May-16 12:30S 33°52' E 151°13'0 0.0
2018-May-16 12:00S 33°52' E 151°13'0 0.0
2018-May-16 11:30S 33°52' E 151°13'0 0.0
2018-May-16 10:59S 33°52' E 151°13'0 0.0
2018-May-16 09:45S 33°52' E 151°13'1 3.8
2018-May-16 09:26S 33°52' E 151°14'2 1.7
2018-May-16 07:57S 33°51' E 151°11'2 2.3
2018-May-16 07:07S 33°51' E 151°13'2 0.5
2018-May-16 03:00S 33°52' E 151°16'0 0.4
2018-May-16 02:30S 33°52' E 151°16'0 0.2
2018-May-16 02:01S 33°51' E 151°16'0 0.4
2018-May-16 01:31S 33°52' E 151°16'2 0.5
2018-May-15 20:34S 33°51' E 151°13'1 4.3
2018-May-15 20:22S 33°52' E 151°13'0 0.5
2018-May-15 20:00S 33°51' E 151°13'0 0.4
2018-May-15 19:30S 33°52' E 151°13'0 0.0
2018-May-15 19:00S 33°52' E 151°13'0 0.0
2018-May-15 18:30S 33°52' E 151°13'0 0.0
2018-May-15 18:00S 33°52' E 151°13'0 0.0
2018-May-15 17:30S 33°52' E 151°13'0 0.0
2018-May-15 17:00S 33°52' E 151°13'0 0.0
2018-May-15 16:30S 33°52' E 151°13'0 0.0
2018-May-15 16:00S 33°52' E 151°13'0 0.0
2018-May-15 15:30S 33°52' E 151°13'0 0.0
2018-May-15 15:00S 33°52' E 151°13'0 0.0
2018-May-15 14:30S 33°52' E 151°13'1 2.1
2018-May-15 14:00S 33°51' E 151°12'2 3.3
2018-May-15 13:30S 33°51' E 151°13'1 1.5
2018-May-15 12:53S 33°52' E 151°13'1 3.3
2018-May-15 12:29S 33°51' E 151°11'1 1.9
2018-May-15 11:48S 33°51' E 151°13'1 1.1
2018-May-15 11:08S 33°51' E 151°14'1 5.9
2018-May-15 10:57S 33°52' E 151°13'0 0.4
2018-May-15 09:46S 33°51' E 151°13'0 0.5
2018-May-15 09:29S 33°51' E 151°13'1 1.9
2018-May-15 08:54S 33°50' E 151°14'2 3.9
2018-May-15 08:30S 33°52' E 151°13'0 0.5
2018-May-15 07:48S 33°51' E 151°13'1 1.6
2018-May-15 07:29S 33°51' E 151°13'  

Dump ship's entire track history